createdAt,value
2022-11-21T00:01:21.015Z,0.00
2022-11-21T00:03:48.350Z,0.00
2022-11-21T00:06:15.522Z,-0.10
2022-11-21T00:08:42.685Z,0.00
2022-11-21T00:11:09.893Z,-0.10
2022-11-21T00:13:37.074Z,-0.10
2022-11-21T00:16:12.033Z,0.00
2022-11-21T00:18:39.585Z,0.00
2022-11-21T00:21:07.944Z,0.00
2022-11-21T00:23:35.133Z,0.00
2022-11-21T00:26:06.829Z,0.00
2022-11-21T00:28:34.431Z,0.00
2022-11-21T00:31:01.482Z,0.00
2022-11-21T00:33:28.413Z,0.00
2022-11-21T00:35:55.416Z,0.10
2022-11-21T00:38:24.453Z,0.10
2022-11-21T00:40:51.595Z,0.00
2022-11-21T00:43:18.566Z,0.00
2022-11-21T00:45:45.587Z,-0.10
2022-11-21T00:48:12.575Z,-0.10
2022-11-21T00:50:39.610Z,0.00
2022-11-21T00:53:06.679Z,-0.10
2022-11-21T00:55:33.725Z,-0.10
2022-11-21T00:58:00.775Z,-0.10
2022-11-21T01:00:27.798Z,-0.10
2022-11-21T01:02:54.779Z,-0.10
2022-11-21T01:05:21.744Z,-0.10
2022-11-21T01:07:49.365Z,-0.10
2022-11-21T01:10:16.337Z,0.00
2022-11-21T01:12:44.551Z,0.00
2022-11-21T01:15:11.695Z,0.00
2022-11-21T01:17:38.641Z,0.00
2022-11-21T01:20:07.120Z,0.00
2022-11-21T01:22:34.174Z,-0.10
2022-11-21T01:25:01.221Z,-0.10
2022-11-21T01:27:28.149Z,-0.10
2022-11-21T01:29:55.096Z,-0.10
2022-11-21T01:32:22.041Z,-0.20
2022-11-21T01:34:49.151Z,-0.10
2022-11-21T01:37:16.099Z,-0.10
2022-11-21T01:39:43.029Z,-0.10
2022-11-21T01:42:13.764Z,-0.10
2022-11-21T01:44:51.567Z,-0.10
2022-11-21T01:47:18.698Z,-0.10
2022-11-21T01:49:47.166Z,-0.10
2022-11-21T01:52:24.886Z,-0.10
2022-11-21T01:55:17.905Z,-0.10
2022-11-21T01:57:48.554Z,-0.10
2022-11-21T02:00:25.873Z,0.00
2022-11-21T02:03:04.883Z,0.00
2022-11-21T02:05:35.408Z,0.00
2022-11-21T02:08:15.070Z,0.00
2022-11-21T02:11:04.928Z,0.00
2022-11-21T02:13:31.938Z,0.00
2022-11-21T02:15:59.045Z,0.00
2022-11-21T02:18:26.157Z,0.10
2022-11-21T02:20:58.890Z,0.00
2022-11-21T02:23:46.029Z,0.00
2022-11-21T02:26:13.985Z,0.00
2022-11-21T02:28:41.597Z,0.10
2022-11-21T02:31:08.590Z,0.10
2022-11-21T02:33:35.574Z,0.20
2022-11-21T02:36:03.431Z,0.10
2022-11-21T02:38:37.669Z,0.10
2022-11-21T02:41:14.874Z,0.10
2022-11-21T02:44:05.727Z,0.00
2022-11-21T02:46:35.129Z,0.00
2022-11-21T02:49:06.652Z,0.10
2022-11-21T02:51:33.690Z,0.10
2022-11-21T02:54:00.661Z,0.10
2022-11-21T02:56:27.841Z,0.10
2022-11-21T02:58:55.563Z,0.00
2022-11-21T03:01:22.631Z,0.00
2022-11-21T03:03:49.590Z,0.00
2022-11-21T03:06:16.666Z,0.00
2022-11-21T03:08:43.710Z,0.00
2022-11-21T03:11:10.686Z,0.00
2022-11-21T03:13:37.649Z,-0.10
2022-11-21T03:16:04.737Z,-0.10
2022-11-21T03:18:31.724Z,-0.20
2022-11-21T03:20:58.694Z,-0.20
2022-11-21T03:23:25.618Z,-0.30
2022-11-21T03:25:52.627Z,-0.30
2022-11-21T03:28:19.581Z,-0.20
2022-11-21T03:30:47.568Z,-0.20
2022-11-21T03:33:14.611Z,-0.20
2022-11-21T03:35:41.562Z,-0.20
2022-11-21T03:38:08.554Z,-0.20
2022-11-21T03:40:35.502Z,-0.10
2022-11-21T03:43:06.169Z,-0.10
2022-11-21T03:45:33.114Z,-0.10
2022-11-21T03:48:00.206Z,-0.20
2022-11-21T03:50:27.219Z,-0.30
2022-11-21T03:52:54.149Z,-0.30
2022-11-21T03:55:21.395Z,-0.30
2022-11-21T03:57:48.331Z,-0.30
2022-11-21T04:00:16.112Z,-0.30
2022-11-21T04:02:43.098Z,-0.30
2022-11-21T04:05:10.352Z,-0.30
2022-11-21T04:07:37.320Z,-0.30
2022-11-21T04:10:04.577Z,-0.30
2022-11-21T04:12:31.667Z,-0.30
2022-11-21T04:14:58.616Z,-0.20
2022-11-21T04:17:25.568Z,-0.10
2022-11-21T04:19:52.547Z,0.00
2022-11-21T04:22:19.605Z,-0.10
2022-11-21T04:24:46.557Z,0.00
2022-11-21T04:27:13.511Z,0.00
2022-11-21T04:29:40.440Z,-0.10
2022-11-21T04:32:07.451Z,-0.10
2022-11-21T04:34:34.455Z,-0.10
2022-11-21T04:37:01.513Z,-0.20
2022-11-21T04:39:28.687Z,-0.20
2022-11-21T04:41:55.602Z,-0.20
2022-11-21T04:44:22.596Z,-0.30
2022-11-21T04:46:49.584Z,-0.30
2022-11-21T04:49:16.554Z,-0.30
2022-11-21T04:51:43.561Z,-0.30
2022-11-21T04:54:11.426Z,-0.30
2022-11-21T04:56:38.451Z,-0.30
2022-11-21T04:59:05.464Z,-0.30
2022-11-21T05:01:32.526Z,-0.30
2022-11-21T05:03:59.761Z,-0.30
2022-11-21T05:06:26.758Z,-0.20
2022-11-21T05:08:54.330Z,-0.20
2022-11-21T05:11:40.377Z,-0.30
2022-11-21T05:14:07.353Z,-0.30
2022-11-21T05:16:34.749Z,-0.20
2022-11-21T05:19:01.809Z,-0.20
2022-11-21T05:21:28.764Z,-0.20
2022-11-21T05:23:55.711Z,-0.30
2022-11-21T05:26:22.649Z,-0.30
2022-11-21T05:28:49.588Z,-0.30
2022-11-21T05:31:16.530Z,-0.30
2022-11-21T05:33:43.507Z,-0.20
2022-11-21T05:36:10.594Z,-0.20
2022-11-21T05:38:37.494Z,-0.30
2022-11-21T05:41:04.447Z,-0.30
2022-11-21T05:43:46.553Z,-0.20
2022-11-21T05:46:19.122Z,-0.10
2022-11-21T05:48:47.484Z,-0.10
2022-11-21T05:51:15.681Z,-0.10
2022-11-21T05:53:43.151Z,0.00
2022-11-21T05:56:12.765Z,0.00
2022-11-21T05:58:40.086Z,0.00
2022-11-21T06:01:08.780Z,0.00
2022-11-21T06:03:38.761Z,0.00
2022-11-21T06:06:11.485Z,0.00
2022-11-21T06:08:46.776Z,0.00
2022-11-21T06:11:15.999Z,0.00
2022-11-21T06:13:43.210Z,0.00
2022-11-21T06:16:15.850Z,0.00
2022-11-21T06:18:44.669Z,0.10
2022-11-21T06:21:25.569Z,0.10
2022-11-21T06:23:54.213Z,0.10
2022-11-21T06:26:23.458Z,0.10
2022-11-21T06:28:51.505Z,0.00
2022-11-21T06:31:21.279Z,0.00
2022-11-21T06:33:51.667Z,0.00
2022-11-21T06:36:18.793Z,0.10
2022-11-21T06:38:46.163Z,0.10
2022-11-21T06:41:24.199Z,0.10
2022-11-21T06:43:51.704Z,0.10
2022-11-21T06:46:19.731Z,0.10
2022-11-21T06:48:46.671Z,0.10
2022-11-21T06:51:25.351Z,0.10
2022-11-21T06:53:57.542Z,0.10
2022-11-21T06:56:25.983Z,0.10
2022-11-21T06:58:53.408Z,0.10
2022-11-21T07:01:20.523Z,0.10
2022-11-21T07:03:50.582Z,0.10
2022-11-21T07:06:17.512Z,0.00
2022-11-21T07:08:44.456Z,0.00
2022-11-21T07:11:30.318Z,0.00
2022-11-21T07:13:57.268Z,-0.10
2022-11-21T07:16:26.440Z,0.00
2022-11-21T07:18:53.604Z,0.00
2022-11-21T07:21:20.541Z,-0.10
2022-11-21T07:23:48.314Z,0.00
2022-11-21T07:26:15.384Z,0.00
2022-11-21T07:28:42.585Z,0.00
2022-11-21T07:31:13.771Z,0.00
2022-11-21T07:33:43.510Z,0.00
2022-11-21T07:36:12.189Z,0.00
2022-11-21T07:38:39.230Z,0.00
2022-11-21T07:41:06.327Z,0.10
2022-11-21T07:43:33.298Z,0.00
2022-11-21T07:46:00.401Z,0.00
2022-11-21T07:48:27.381Z,0.10
2022-11-21T07:50:54.296Z,0.10
2022-11-21T07:53:21.284Z,0.10
2022-11-21T07:55:48.361Z,0.10
2022-11-21T07:58:16.914Z,0.20
2022-11-21T08:00:44.103Z,0.10
2022-11-21T08:03:12.846Z,0.20
2022-11-21T08:05:41.835Z,0.20
2022-11-21T08:08:10.175Z,0.20
2022-11-21T08:10:39.207Z,0.20
2022-11-21T08:13:06.730Z,0.30
2022-11-21T08:15:33.805Z,0.30
2022-11-21T08:18:12.284Z,0.20
2022-11-21T08:20:40.002Z,0.10
2022-11-21T08:23:07.118Z,0.10
2022-11-21T08:25:36.702Z,0.20
2022-11-21T08:28:04.398Z,0.20
2022-11-21T08:30:31.967Z,0.20
2022-11-21T08:32:59.392Z,0.20
2022-11-21T08:35:27.351Z,0.20
2022-11-21T08:38:01.418Z,0.20
2022-11-21T08:40:30.455Z,0.30
2022-11-21T08:43:06.011Z,0.30
2022-11-21T08:45:34.279Z,0.20
2022-11-21T08:48:01.756Z,0.30
2022-11-21T08:50:28.821Z,0.20
2022-11-21T08:53:03.105Z,0.20
2022-11-21T08:55:30.768Z,0.20
2022-11-21T08:57:58.059Z,0.20
2022-11-21T09:00:25.258Z,0.20
2022-11-21T09:02:52.214Z,0.10
2022-11-21T09:05:19.200Z,0.10
2022-11-21T09:07:47.548Z,0.10
2022-11-21T09:10:15.110Z,0.10
2022-11-21T09:12:42.176Z,0.10
2022-11-21T09:15:29.712Z,0.10
2022-11-21T09:18:03.904Z,0.10
2022-11-21T09:20:34.176Z,0.10
2022-11-21T09:23:05.663Z,0.10
2022-11-21T09:25:32.945Z,0.10
2022-11-21T09:28:01.937Z,0.10
2022-11-21T09:30:29.000Z,0.10
2022-11-21T09:33:01.315Z,0.00
2022-11-21T09:35:28.451Z,0.00
2022-11-21T09:37:55.514Z,0.00
2022-11-21T09:40:23.234Z,0.00
2022-11-21T09:43:17.881Z,0.00
2022-11-21T09:45:44.777Z,0.00
2022-11-21T09:48:15.904Z,-0.10
2022-11-21T09:50:53.441Z,0.00
2022-11-21T09:53:54.781Z,0.00
2022-11-21T09:56:23.717Z,0.00
2022-11-21T09:59:23.944Z,0.00
2022-11-21T10:01:51.720Z,0.00
2022-11-21T10:04:18.748Z,0.10
2022-11-21T10:07:04.863Z,0.10
2022-11-21T10:09:53.505Z,0.10
2022-11-21T10:12:38.750Z,0.10
2022-11-21T10:15:14.303Z,0.10
2022-11-21T10:17:48.179Z,0.10
2022-11-21T10:20:29.051Z,0.10
2022-11-21T10:23:04.876Z,0.10
2022-11-21T10:25:39.121Z,0.10
2022-11-21T10:28:28.179Z,0.00
2022-11-21T10:30:58.537Z,0.10
2022-11-21T10:33:32.744Z,0.10
2022-11-21T10:36:06.046Z,0.10
2022-11-21T10:38:38.508Z,0.20
2022-11-21T10:41:25.885Z,0.20
2022-11-21T10:44:35.890Z,0.20
2022-11-21T10:47:12.956Z,0.20
2022-11-21T10:49:40.563Z,0.20
2022-11-21T10:52:16.454Z,0.20
2022-11-21T10:55:04.913Z,0.20
2022-11-21T10:57:39.726Z,0.20
2022-11-21T11:00:12.759Z,0.20
2022-11-21T11:02:55.714Z,0.10
2022-11-21T11:05:27.747Z,0.00
2022-11-21T11:08:06.749Z,0.10
2022-11-21T11:10:39.700Z,0.10
2022-11-21T11:13:50.646Z,0.00
2022-11-21T11:16:21.652Z,0.00
2022-11-21T11:18:56.024Z,0.00
2022-11-21T11:21:25.585Z,0.10
2022-11-21T11:23:54.478Z,0.10
2022-11-21T11:26:30.510Z,0.10
2022-11-21T11:29:26.966Z,0.20
2022-11-21T11:31:54.113Z,0.20
2022-11-21T11:34:21.797Z,0.20
2022-11-21T11:37:05.184Z,0.10
2022-11-21T11:39:37.918Z,0.10
2022-11-21T11:42:38.612Z,0.10
2022-11-21T11:45:33.166Z,0.10
2022-11-21T11:48:04.444Z,0.20
2022-11-21T11:50:32.920Z,0.10
2022-11-21T11:53:16.567Z,0.10
2022-11-21T11:56:11.946Z,0.10
2022-11-21T11:58:50.585Z,0.10
2022-11-21T12:01:29.859Z,0.10
2022-11-21T12:04:10.447Z,0.20
2022-11-21T12:07:52.833Z,0.20
2022-11-21T12:10:13.904Z,0.10
2022-11-21T12:12:45.513Z,0.00
2022-11-21T12:15:34.030Z,0.00
2022-11-21T12:18:16.388Z,0.00
2022-11-21T12:21:09.143Z,0.10
2022-11-21T12:23:52.376Z,0.00
2022-11-21T12:26:20.442Z,0.00
2022-11-21T12:29:06.377Z,0.10
2022-11-21T12:31:39.353Z,0.00
2022-11-21T12:34:15.215Z,0.00
2022-11-21T12:36:56.520Z,0.00
2022-11-21T12:39:35.431Z,-0.10
2022-11-21T12:42:35.958Z,-0.10
2022-11-21T12:45:14.777Z,-0.10
2022-11-21T12:48:22.019Z,-0.10
2022-11-21T12:51:20.271Z,-0.20
2022-11-21T12:54:38.723Z,-0.20
2022-11-21T12:57:13.137Z,-0.20
2022-11-21T13:00:01.916Z,-0.20
2022-11-21T13:02:31.672Z,-0.20
2022-11-21T13:05:01.379Z,-0.30
2022-11-21T13:07:31.389Z,-0.30
2022-11-21T13:10:01.063Z,-0.30
2022-11-21T13:12:39.480Z,-0.30
2022-11-21T13:15:28.033Z,-0.30
2022-11-21T13:18:05.315Z,-0.30
2022-11-21T13:20:39.590Z,-0.40
2022-11-21T13:23:40.208Z,-0.40
2022-11-21T13:26:25.651Z,-0.40
2022-11-21T13:29:14.240Z,-0.30
2022-11-21T13:31:41.730Z,-0.30
2022-11-21T13:34:32.250Z,-0.40
2022-11-21T13:36:59.342Z,-0.40
2022-11-21T13:39:31.962Z,-0.30
2022-11-21T13:42:23.517Z,-0.40
2022-11-21T13:44:51.318Z,-0.40
2022-11-21T13:47:34.967Z,-0.30
2022-11-21T13:50:22.939Z,-0.30
2022-11-21T13:53:23.170Z,-0.30
2022-11-21T13:56:18.938Z,-0.30
2022-11-21T13:59:01.389Z,-0.30
2022-11-21T14:01:35.835Z,-0.20
2022-11-21T14:04:08.625Z,-0.30
2022-11-21T14:06:43.239Z,-0.30
2022-11-21T14:09:31.617Z,-0.30
2022-11-21T14:12:02.907Z,-0.30
2022-11-21T14:14:40.729Z,-0.30
2022-11-21T14:17:34.611Z,-0.30
2022-11-21T14:20:13.804Z,-0.30
2022-11-21T14:22:53.989Z,-0.30
2022-11-21T14:25:36.612Z,-0.40
2022-11-21T14:28:06.582Z,-0.40
2022-11-21T14:30:38.853Z,-0.40
2022-11-21T14:33:39.066Z,-0.40
2022-11-21T14:36:07.649Z,-0.40
2022-11-21T14:38:47.716Z,-0.40
2022-11-21T14:41:26.177Z,-0.40
2022-11-21T14:43:59.025Z,-0.40
2022-11-21T14:46:28.292Z,-0.50
2022-11-21T14:48:57.439Z,-0.40
2022-11-21T14:51:25.919Z,-0.50
2022-11-21T14:53:54.086Z,-0.50
2022-11-21T14:56:33.067Z,-0.50
2022-11-21T14:59:02.986Z,-0.50
2022-11-21T15:01:34.372Z,-0.50
2022-11-21T15:04:07.701Z,-0.50
2022-11-21T15:06:43.502Z,-0.50
2022-11-21T15:10:26.048Z,-0.60
2022-11-21T15:12:08.027Z,-0.60
2022-11-21T15:14:41.973Z,-0.60
2022-11-21T15:17:14.598Z,-0.60
2022-11-21T15:19:43.458Z,-0.50
2022-11-21T15:22:33.799Z,-0.60
2022-11-21T15:25:30.885Z,-0.60
2022-11-21T15:28:00.996Z,-0.60
2022-11-21T15:30:32.651Z,-0.60
2022-11-21T15:33:05.317Z,-0.70
2022-11-21T15:35:38.408Z,-0.70
2022-11-21T15:38:24.203Z,-0.70
2022-11-21T15:41:03.193Z,-0.70
2022-11-21T15:43:46.415Z,-0.70
2022-11-21T15:46:17.981Z,-0.70
2022-11-21T15:48:53.093Z,-0.70
2022-11-21T15:51:44.054Z,-0.80
2022-11-21T15:54:15.771Z,-0.70
2022-11-21T15:56:42.920Z,-0.70
2022-11-21T15:59:10.378Z,-0.80
2022-11-21T16:01:37.835Z,-0.80
2022-11-21T16:04:13.269Z,-0.80
2022-11-21T16:06:40.451Z,-0.80
2022-11-21T16:09:07.446Z,-0.80
2022-11-21T16:11:43.345Z,-0.80
2022-11-21T16:14:14.682Z,-0.80
2022-11-21T16:16:43.872Z,-0.70
2022-11-21T16:19:14.939Z,-0.70
2022-11-21T16:21:42.597Z,-0.70
2022-11-21T16:24:09.611Z,-0.70
2022-11-21T16:26:36.549Z,-0.70
2022-11-21T16:29:05.761Z,-0.70
2022-11-21T16:31:33.718Z,-0.70
2022-11-21T16:34:01.116Z,-0.70
2022-11-21T16:36:30.159Z,-0.70
2022-11-21T16:39:01.867Z,-0.70
2022-11-21T16:41:30.639Z,-0.60
2022-11-21T16:43:58.016Z,-0.60
2022-11-21T16:46:26.062Z,-0.60
2022-11-21T16:49:03.568Z,-0.60
2022-11-21T16:51:30.999Z,-0.60
2022-11-21T16:54:01.750Z,-0.60
2022-11-21T16:56:32.741Z,-0.70
2022-11-21T16:58:59.821Z,-0.70
2022-11-21T17:01:28.292Z,-0.70
2022-11-21T17:03:55.567Z,-0.60
2022-11-21T17:06:28.650Z,-0.60
2022-11-21T17:08:56.172Z,-0.70
2022-11-21T17:11:29.433Z,-0.80
2022-11-21T17:13:59.359Z,-0.80
2022-11-21T17:16:26.780Z,-0.70
2022-11-21T17:18:55.897Z,-0.70
2022-11-21T17:21:23.496Z,-0.70
2022-11-21T17:23:51.126Z,-0.70
2022-11-21T17:26:23.444Z,-0.60
2022-11-21T17:28:57.819Z,-0.70
2022-11-21T17:31:24.866Z,-0.80
2022-11-21T17:33:52.376Z,-0.70
2022-11-21T17:36:21.625Z,-0.70
2022-11-21T17:38:49.545Z,-0.70
2022-11-21T17:41:18.287Z,-0.70
2022-11-21T17:43:47.086Z,-0.70
2022-11-21T17:46:19.072Z,-0.70
2022-11-21T17:48:53.181Z,-0.70
2022-11-21T17:51:24.117Z,-0.70
2022-11-21T17:53:52.343Z,-0.70
2022-11-21T17:56:22.008Z,-0.70
2022-11-21T17:58:49.198Z,-0.70
2022-11-21T18:01:19.499Z,-0.80
2022-11-21T18:03:48.089Z,-0.80
2022-11-21T18:06:17.174Z,-0.80
2022-11-21T18:08:46.355Z,-0.70
2022-11-21T18:11:18.348Z,-0.70
2022-11-21T18:13:45.669Z,-0.80
2022-11-21T18:16:14.739Z,-0.90
2022-11-21T18:18:41.960Z,-0.90
2022-11-21T18:21:15.482Z,-0.90
2022-11-21T18:23:43.879Z,-0.90
2022-11-21T18:26:23.226Z,-1.00
2022-11-21T18:29:07.127Z,-1.00
2022-11-21T18:31:39.177Z,-1.00
2022-11-21T18:34:06.834Z,-1.00
2022-11-21T18:36:34.308Z,-1.00
2022-11-21T18:39:07.237Z,-1.00
2022-11-21T18:41:39.161Z,-1.00
2022-11-21T18:44:07.001Z,-1.10
2022-11-21T18:46:36.333Z,-1.00
2022-11-21T18:49:06.891Z,-0.90
2022-11-21T18:51:36.070Z,-0.90
2022-11-21T18:54:08.582Z,-0.90
2022-11-21T18:56:37.098Z,-1.00
2022-11-21T18:59:05.848Z,-0.90
2022-11-21T19:01:34.698Z,-0.90
2022-11-21T19:04:01.900Z,-0.90
2022-11-21T19:06:29.334Z,-0.90
2022-11-21T19:08:58.164Z,-0.90
2022-11-21T19:11:30.144Z,-0.80
2022-11-21T19:13:58.267Z,-0.80
2022-11-21T19:16:27.478Z,-0.80
2022-11-21T19:19:26.533Z,-0.80
2022-11-21T19:21:42.546Z,-0.80
2022-11-21T19:24:14.026Z,-0.80
2022-11-21T19:26:41.925Z,-0.80
2022-11-21T19:29:09.605Z,-0.80
2022-11-21T19:31:42.948Z,-0.70
2022-11-21T19:34:11.926Z,-0.70
2022-11-21T19:36:39.651Z,-0.70
2022-11-21T19:39:07.797Z,-0.60
2022-11-21T19:41:35.292Z,-0.60
2022-11-21T19:44:02.523Z,-0.50
2022-11-21T19:46:39.550Z,-0.50
2022-11-21T19:49:08.990Z,-0.50
2022-11-21T19:51:38.715Z,-0.50
2022-11-21T19:54:07.132Z,-0.50
2022-11-21T19:56:34.591Z,-0.50
2022-11-21T19:59:01.683Z,-0.50
2022-11-21T20:01:31.016Z,-0.40
2022-11-21T20:04:03.746Z,-0.40
2022-11-21T20:06:33.935Z,-0.30
2022-11-21T20:09:10.035Z,-0.30
2022-11-21T20:11:38.438Z,-0.40
2022-11-21T20:14:05.566Z,-0.30
2022-11-21T20:16:41.715Z,-0.30
2022-11-21T20:19:11.502Z,-0.30
2022-11-21T20:21:38.938Z,-0.20
2022-11-21T20:24:06.736Z,-0.20
2022-11-21T20:26:34.942Z,-0.10
2022-11-21T20:29:02.442Z,-0.10
2022-11-21T20:31:32.158Z,-0.10
2022-11-21T20:34:05.444Z,-0.10
2022-11-21T20:36:34.489Z,-0.10
2022-11-21T20:39:04.356Z,-0.10
2022-11-21T20:41:34.626Z,-0.10
2022-11-21T20:46:54.143Z,0.00
2022-11-21T20:49:21.120Z,-0.10
2022-11-21T20:54:35.474Z,0.10
2022-11-21T20:57:02.522Z,0.00
2022-11-21T20:59:29.852Z,0.00
2022-11-21T21:01:57.065Z,0.10
2022-11-21T21:04:24.074Z,0.10
2022-11-21T21:06:51.074Z,0.20
2022-11-21T21:09:18.005Z,0.20
2022-11-21T21:11:53.383Z,0.20
2022-11-21T21:14:24.136Z,0.20
2022-11-21T21:16:51.308Z,0.20
2022-11-21T21:19:18.597Z,0.20
2022-11-21T21:21:45.871Z,0.20
2022-11-21T21:24:14.247Z,0.20
2022-11-21T21:26:48.934Z,0.20
2022-11-21T21:29:18.878Z,0.20
2022-11-21T21:31:50.963Z,0.20
2022-11-21T21:34:20.897Z,0.20
2022-11-21T21:36:48.573Z,0.20
2022-11-21T21:39:15.983Z,0.30
2022-11-21T21:41:44.681Z,0.30
2022-11-21T21:44:12.250Z,0.30
2022-11-21T21:46:39.179Z,0.20
2022-11-21T21:49:06.145Z,0.20
2022-11-21T21:51:33.279Z,0.20
2022-11-21T21:54:00.535Z,0.20
2022-11-21T21:56:29.023Z,0.20
2022-11-21T21:58:59.703Z,0.20
2022-11-21T22:01:29.056Z,0.30
2022-11-21T22:04:01.470Z,0.40
2022-11-21T22:06:29.164Z,0.40
2022-11-21T22:08:56.678Z,0.40
2022-11-21T22:11:26.092Z,0.40
2022-11-21T22:13:58.553Z,0.40
2022-11-21T22:16:26.079Z,0.40
2022-11-21T22:18:53.637Z,0.40
2022-11-21T22:21:28.884Z,0.40
2022-11-21T22:24:23.402Z,0.40
2022-11-21T22:26:45.152Z,0.40
2022-11-21T22:29:12.149Z,0.50
2022-11-21T22:31:39.140Z,0.60
2022-11-21T22:34:06.277Z,0.60
2022-11-21T22:36:33.614Z,0.70
2022-11-21T22:39:00.551Z,0.60
2022-11-21T22:41:28.248Z,0.60
2022-11-21T22:43:57.766Z,0.70
2022-11-21T22:46:27.180Z,0.70
2022-11-21T22:48:54.442Z,0.70
2022-11-21T22:51:24.620Z,0.80
2022-11-21T22:53:52.085Z,0.80
2022-11-21T22:56:23.579Z,0.80
2022-11-21T22:58:50.803Z,0.80
2022-11-21T23:01:20.439Z,0.80
2022-11-21T23:03:49.068Z,0.80
2022-11-21T23:06:21.512Z,0.70
2022-11-21T23:08:52.728Z,0.70
2022-11-21T23:11:26.113Z,0.70
2022-11-21T23:13:54.689Z,0.70
2022-11-21T23:16:22.526Z,0.70
2022-11-21T23:18:52.903Z,0.70
2022-11-21T23:21:21.097Z,0.70
2022-11-21T23:23:48.102Z,0.70
2022-11-21T23:26:15.096Z,0.70
2022-11-21T23:28:42.028Z,0.70
2022-11-21T23:31:10.066Z,0.70
2022-11-21T23:33:37.020Z,0.80
2022-11-21T23:36:04.575Z,0.70
2022-11-21T23:38:31.666Z,0.70
2022-11-21T23:40:58.645Z,0.70
2022-11-21T23:43:25.665Z,0.70
2022-11-21T23:45:53.699Z,0.80
2022-11-21T23:48:21.868Z,0.80
2022-11-21T23:50:50.958Z,0.80
2022-11-21T23:53:19.530Z,0.80
2022-11-21T23:55:47.279Z,0.80
2022-11-21T23:58:15.383Z,0.80
